Terminal Aerodrome Forecast
Issued by NWS

Home | Current Version | Previous Version | Text Only | Print | Product List | Glossary On
Versions: 1 2 3 4 5 6 7 8 9 10 11 12 13 14 15 16 17 18 19 20 21 22 23 24
449
FTUS45 KTWC 251138
TAFOLS
TAF
KOLS 251138Z 2512/2612 VRB03KT P6SM SCT130
     FM251800 23007KT P6SM SCT090
     FM252100 26008KT P6SM SCT090 SCT140
     FM260100 21006KT P6SM SCT090 BKN140
     FM260600 VRB03KT P6SM FEW090 SCT140=

USA.gov is the U.S. government's official web portal to all federal, state and local government web resources and services.